createdAt,value
2022-07-28T00:02:09.105Z,22.50
2022-07-28T00:04:38.744Z,22.50
2022-07-28T00:07:08.294Z,22.50
2022-07-28T00:09:37.802Z,22.20
2022-07-28T00:12:07.693Z,22.20
2022-07-28T00:14:37.307Z,22.20
2022-07-28T00:17:06.872Z,22.10
2022-07-28T00:19:36.354Z,22.10
2022-07-28T00:22:07.834Z,22.30
2022-07-28T00:24:37.962Z,22.20
2022-07-28T00:27:07.773Z,22.20
2022-07-28T00:29:42.527Z,22.30
2022-07-28T00:32:08.927Z,22.40
2022-07-28T00:34:38.599Z,22.50
2022-07-28T00:37:13.343Z,22.20
2022-07-28T00:39:41.198Z,22.40
2022-07-28T00:42:10.910Z,22.40
2022-07-28T00:44:42.287Z,22.60
2022-07-28T00:47:12.290Z,22.50
2022-07-28T00:49:42.403Z,22.40
2022-07-28T00:52:14.088Z,22.50
2022-07-28T00:54:43.692Z,22.20
2022-07-28T00:57:13.302Z,22.40
2022-07-28T00:59:42.844Z,22.30
2022-07-28T01:02:12.467Z,22.10
2022-07-28T01:04:42.635Z,22.10
2022-07-28T01:07:36.514Z,21.90
2022-07-28T01:10:18.014Z,22.20
2022-07-28T01:12:53.255Z,22.10
2022-07-28T01:15:25.799Z,22.10
2022-07-28T01:18:13.266Z,22.10
2022-07-28T01:21:06.635Z,21.90
2022-07-28T01:23:39.396Z,21.80
2022-07-28T01:26:21.152Z,21.70
2022-07-28T01:29:16.213Z,21.90
2022-07-28T01:31:54.783Z,21.80
2022-07-28T01:34:27.291Z,21.70
2022-07-28T01:36:59.852Z,21.70
2022-07-28T01:39:32.650Z,21.70
2022-07-28T01:42:05.271Z,21.60
2022-07-28T01:44:37.840Z,21.50
2022-07-28T01:47:09.623Z,21.50
2022-07-28T01:49:40.414Z,21.50
2022-07-28T01:52:10.530Z,21.50
2022-07-28T01:54:43.063Z,21.50
2022-07-28T01:57:15.752Z,21.40
2022-07-28T01:59:46.220Z,21.40
2022-07-28T02:02:18.300Z,21.40
2022-07-28T02:04:49.829Z,21.40
2022-07-28T02:07:21.785Z,21.40
2022-07-28T02:09:51.762Z,21.10
2022-07-28T02:12:22.834Z,21.10
2022-07-28T02:14:54.533Z,21.10
2022-07-28T02:17:27.076Z,21.20
2022-07-28T02:19:58.663Z,21.10
2022-07-28T02:22:29.396Z,21.00
2022-07-28T02:25:42.288Z,20.90
2022-07-28T02:28:14.294Z,21.00
2022-07-28T02:30:46.835Z,20.90
2022-07-28T02:33:19.338Z,20.80
2022-07-28T02:35:53.553Z,20.80
2022-07-28T02:38:27.631Z,20.90
2022-07-28T02:41:00.953Z,20.90
2022-07-28T02:43:50.623Z,20.70
2022-07-28T02:46:07.668Z,20.70
2022-07-28T02:48:41.378Z,20.60
2022-07-28T02:51:10.745Z,20.60
2022-07-28T02:53:41.066Z,20.60
2022-07-28T02:56:12.838Z,20.60
2022-07-28T02:58:43.069Z,20.70
2022-07-28T03:01:13.678Z,20.50
2022-07-28T03:03:44.225Z,20.70
2022-07-28T03:06:16.086Z,20.70
2022-07-28T03:08:46.255Z,20.70
2022-07-28T03:11:15.914Z,20.50
2022-07-28T03:13:46.161Z,20.40
2022-07-28T03:16:15.809Z,20.50
2022-07-28T03:18:45.345Z,20.40
2022-07-28T03:21:15.673Z,20.40
2022-07-28T03:23:48.229Z,20.30
2022-07-28T03:26:24.211Z,20.30
2022-07-28T03:28:56.556Z,20.20
2022-07-28T03:31:28.757Z,20.10
2022-07-28T03:33:58.353Z,20.20
2022-07-28T03:36:33.721Z,20.20
2022-07-28T03:39:05.787Z,20.10
2022-07-28T03:41:36.720Z,20.10
2022-07-28T03:44:08.632Z,19.90
2022-07-28T03:46:39.635Z,20.10
2022-07-28T03:49:09.885Z,20.20
2022-07-28T03:51:40.354Z,20.20
2022-07-28T03:54:10.363Z,20.00
2022-07-28T03:56:40.245Z,20.00
2022-07-28T03:59:11.268Z,20.00
2022-07-28T04:01:41.013Z,20.00
2022-07-28T04:04:10.625Z,20.00
2022-07-28T04:06:40.399Z,20.00
2022-07-28T04:09:09.939Z,19.80
2022-07-28T04:11:39.447Z,19.90
2022-07-28T04:14:16.235Z,20.00
2022-07-28T04:16:41.906Z,20.00
2022-07-28T04:19:11.923Z,19.90
2022-07-28T04:21:41.663Z,19.70
2022-07-28T04:24:12.483Z,19.70
2022-07-28T04:26:41.980Z,19.60
2022-07-28T04:29:13.609Z,19.60
2022-07-28T04:31:43.200Z,19.60
2022-07-28T04:34:14.795Z,19.80
2022-07-28T04:36:44.778Z,19.80
2022-07-28T04:39:14.302Z,19.80
2022-07-28T04:41:43.745Z,19.70
2022-07-28T04:44:13.684Z,19.70
2022-07-28T04:46:44.394Z,19.60
2022-07-28T04:49:13.982Z,19.50
2022-07-28T04:51:45.148Z,19.50
2022-07-28T04:54:14.917Z,19.50
2022-07-28T04:56:46.120Z,19.50
2022-07-28T04:59:16.423Z,19.50
2022-07-28T05:01:47.618Z,19.50
2022-07-28T05:04:17.886Z,19.40
2022-07-28T05:06:48.556Z,19.40
2022-07-28T05:09:18.799Z,19.30
2022-07-28T05:11:48.324Z,19.40
2022-07-28T05:14:18.115Z,19.50
2022-07-28T05:16:48.153Z,19.30
2022-07-28T05:19:17.816Z,19.40
2022-07-28T05:21:47.366Z,19.20
2022-07-28T05:24:17.688Z,19.30
2022-07-28T05:26:47.363Z,19.30
2022-07-28T05:29:16.942Z,19.30
2022-07-28T05:31:46.407Z,19.30
2022-07-28T05:34:16.315Z,19.40
2022-07-28T05:36:47.028Z,19.40
2022-07-28T05:39:16.639Z,19.50
2022-07-28T05:41:46.148Z,19.50
2022-07-28T05:44:15.905Z,19.50
2022-07-28T05:46:45.682Z,19.40
2022-07-28T05:49:15.282Z,19.50
2022-07-28T05:51:47.473Z,19.70
2022-07-28T05:54:17.575Z,19.80
2022-07-28T05:56:50.312Z,19.80
2022-07-28T05:59:19.819Z,19.70
2022-07-28T06:01:53.361Z,19.70
2022-07-28T06:04:27.897Z,19.70
2022-07-28T06:06:54.124Z,19.70
2022-07-28T06:09:23.672Z,20.00
2022-07-28T06:11:53.181Z,20.00
2022-07-28T06:14:22.655Z,20.20
2022-07-28T06:16:52.158Z,20.50
2022-07-28T06:19:21.685Z,20.50
2022-07-28T06:21:52.546Z,20.60
2022-07-28T06:24:22.045Z,20.80
2022-07-28T06:26:52.852Z,21.10
2022-07-28T06:29:23.950Z,21.20
2022-07-28T06:31:53.606Z,21.30
2022-07-28T06:34:23.215Z,21.40
2022-07-28T06:36:52.829Z,21.50
2022-07-28T06:39:22.393Z,21.80
2022-07-28T06:41:51.846Z,21.90
2022-07-28T06:44:23.632Z,21.50
2022-07-28T06:46:54.436Z,21.50
2022-07-28T06:49:24.035Z,21.60
2022-07-28T06:51:53.618Z,21.60
2022-07-28T06:54:23.148Z,21.70
2022-07-28T06:56:54.059Z,21.70
2022-07-28T06:59:25.036Z,21.70
2022-07-28T07:01:54.475Z,21.70
2022-07-28T07:04:23.949Z,21.70
2022-07-28T07:06:53.444Z,22.00
2022-07-28T07:09:23.661Z,21.80
2022-07-28T07:11:53.260Z,21.90
2022-07-28T07:14:22.690Z,22.00
2022-07-28T07:16:52.198Z,21.80
2022-07-28T07:19:22.463Z,21.90
2022-07-28T07:21:52.398Z,22.00
2022-07-28T07:24:22.502Z,21.90
2022-07-28T07:26:53.005Z,21.80
2022-07-28T07:29:23.533Z,21.80
2022-07-28T07:31:53.612Z,21.80
2022-07-28T07:34:23.266Z,21.90
2022-07-28T07:36:52.841Z,22.50
2022-07-28T07:39:25.175Z,22.50
2022-07-28T07:41:53.958Z,22.40
2022-07-28T07:44:24.459Z,22.80
2022-07-28T07:46:54.231Z,23.40
2022-07-28T07:49:24.168Z,23.50
2022-07-28T07:51:53.726Z,23.60
2022-07-28T07:54:24.537Z,23.60
2022-07-28T07:56:54.274Z,23.40
2022-07-28T07:59:23.965Z,23.30
2022-07-28T08:01:56.765Z,23.20
2022-07-28T08:04:26.286Z,23.40
2022-07-28T08:06:57.452Z,23.70
2022-07-28T08:09:26.986Z,23.80
2022-07-28T08:11:56.435Z,23.70
2022-07-28T08:14:25.971Z,23.60
2022-07-28T08:16:57.005Z,23.70
2022-07-28T08:19:27.713Z,24.00
2022-07-28T08:21:57.296Z,24.40
2022-07-28T08:24:32.606Z,24.50
2022-07-28T08:26:57.920Z,25.00
2022-07-28T08:29:27.557Z,25.40
2022-07-28T08:31:57.125Z,25.70
2022-07-28T08:34:33.339Z,26.10
2022-07-28T08:36:58.721Z,26.50
2022-07-28T08:39:28.373Z,26.10
2022-07-28T08:42:13.760Z,26.30
2022-07-28T08:45:01.505Z,26.60
2022-07-28T08:47:45.722Z,27.00
2022-07-28T08:50:06.494Z,27.20
2022-07-28T08:52:37.930Z,26.50
2022-07-28T08:55:10.090Z,26.10
2022-07-28T08:57:44.074Z,25.30
2022-07-28T09:00:14.636Z,25.80
2022-07-28T09:02:46.663Z,26.00
2022-07-28T09:05:17.686Z,26.00
2022-07-28T09:07:54.359Z,26.20
2022-07-28T09:10:27.463Z,26.00
2022-07-28T09:12:56.996Z,25.90
2022-07-28T09:15:26.592Z,25.80
2022-07-28T09:17:56.171Z,25.80
2022-07-28T09:20:27.323Z,25.20
2022-07-28T09:23:33.481Z,25.10
2022-07-28T09:25:38.226Z,24.80
2022-07-28T09:28:10.910Z,24.60
2022-07-28T09:30:53.425Z,25.00
2022-07-28T09:33:42.203Z,25.00
2022-07-28T09:35:56.653Z,24.90
2022-07-28T09:38:28.085Z,25.30
2022-07-28T09:41:07.379Z,25.40
2022-07-28T09:43:44.694Z,25.60
2022-07-28T09:46:22.826Z,26.00
2022-07-28T09:48:56.100Z,26.00
2022-07-28T09:51:28.062Z,26.00
2022-07-28T09:54:15.779Z,26.40
2022-07-28T09:56:46.726Z,26.00
2022-07-28T09:59:17.887Z,26.80
2022-07-28T10:01:58.148Z,27.40
2022-07-28T10:04:37.822Z,27.90
2022-07-28T10:07:16.242Z,27.80
2022-07-28T10:09:59.843Z,28.00
2022-07-28T10:12:31.648Z,28.70
2022-07-28T10:15:33.935Z,27.90
2022-07-28T10:18:04.789Z,28.70
2022-07-28T10:20:37.353Z,29.10
2022-07-28T10:23:11.620Z,29.30
2022-07-28T10:25:44.141Z,29.20
2022-07-28T10:28:16.675Z,29.10
2022-07-28T10:30:49.888Z,29.10
2022-07-28T10:33:19.966Z,26.10
2022-07-28T10:35:51.055Z,27.30
2022-07-28T10:38:23.192Z,27.50
2022-07-28T10:40:56.571Z,27.30
2022-07-28T10:43:30.626Z,27.90
2022-07-28T10:46:08.141Z,29.10
2022-07-28T10:48:39.013Z,29.90
2022-07-28T10:51:09.830Z,29.80
2022-07-28T10:53:54.608Z,30.10
2022-07-28T10:56:45.958Z,30.00
2022-07-28T10:59:29.143Z,30.70
2022-07-28T11:01:58.870Z,31.30
2022-07-28T11:04:44.138Z,31.40
2022-07-28T11:07:15.756Z,31.30
2022-07-28T11:09:49.670Z,28.70
2022-07-28T11:12:22.731Z,29.50
2022-07-28T11:14:54.070Z,30.10
2022-07-28T11:17:33.137Z,31.10
2022-07-28T11:22:29.589Z,29.20
2022-07-28T11:25:20.210Z,29.70
2022-07-28T11:27:46.180Z,31.30
2022-07-28T11:30:18.971Z,31.80
2022-07-28T11:32:57.615Z,31.30
2022-07-28T11:35:30.229Z,30.60
2022-07-28T11:38:06.358Z,30.40
2022-07-28T11:40:53.511Z,30.40
2022-07-28T11:43:36.405Z,30.90
2022-07-28T11:46:12.062Z,30.50
2022-07-28T11:48:45.517Z,31.70
2022-07-28T11:51:16.042Z,32.80
2022-07-28T11:53:48.071Z,32.50
2022-07-28T11:56:26.498Z,32.20
2022-07-28T11:59:01.018Z,31.80
2022-07-28T12:01:32.122Z,31.80
2022-07-28T12:04:04.477Z,30.60
2022-07-28T12:06:43.127Z,32.00
2022-07-28T12:09:13.940Z,31.40
2022-07-28T12:11:46.285Z,31.60
2022-07-28T12:14:18.078Z,32.50
2022-07-28T12:16:50.863Z,33.00
2022-07-28T12:19:22.539Z,33.60
2022-07-28T12:21:56.780Z,33.70
2022-07-28T12:24:32.060Z,33.20
2022-07-28T12:27:05.135Z,33.10
2022-07-28T12:29:36.676Z,33.70
2022-07-28T12:32:10.675Z,32.70
2022-07-28T12:34:40.907Z,32.90
2022-07-28T12:37:10.910Z,32.90
2022-07-28T12:39:42.474Z,32.50
2022-07-28T12:42:14.034Z,33.40
2022-07-28T12:44:47.686Z,32.90
2022-07-28T12:47:19.815Z,30.60
2022-07-28T12:49:54.912Z,32.20
2022-07-28T12:52:25.140Z,33.10
2022-07-28T12:54:56.563Z,33.40
2022-07-28T12:57:50.862Z,33.40
2022-07-28T13:00:21.545Z,33.30
2022-07-28T13:02:56.145Z,32.30
2022-07-28T13:05:54.977Z,30.10
2022-07-28T13:08:27.168Z,29.90
2022-07-28T13:10:58.801Z,30.70
2022-07-28T13:13:29.112Z,31.40
2022-07-28T13:16:17.122Z,30.50
2022-07-28T13:18:51.053Z,29.20
2022-07-28T13:21:57.249Z,29.70
2022-07-28T13:24:18.852Z,30.40
2022-07-28T13:26:48.438Z,31.90
2022-07-28T13:29:18.457Z,32.30
2022-07-28T13:31:49.359Z,31.20
2022-07-28T13:34:19.126Z,30.60
2022-07-28T13:36:48.719Z,31.40
2022-07-28T13:39:18.173Z,32.70
2022-07-28T13:41:57.914Z,33.50
2022-07-28T13:44:19.742Z,33.60
2022-07-28T13:46:50.034Z,33.50
2022-07-28T13:49:21.422Z,33.50
2022-07-28T13:51:51.928Z,31.80
2022-07-28T13:54:21.985Z,32.80
2022-07-28T13:56:51.550Z,33.20
2022-07-28T13:59:22.426Z,33.80
2022-07-28T14:01:52.786Z,32.70
2022-07-28T14:04:22.780Z,33.20
2022-07-28T14:06:53.070Z,33.40
2022-07-28T14:09:22.640Z,33.40
2022-07-28T14:11:53.674Z,33.60
2022-07-28T14:14:25.574Z,33.50
2022-07-28T14:16:55.807Z,33.40
2022-07-28T14:19:39.640Z,33.60
2022-07-28T14:22:00.697Z,33.10
2022-07-28T14:24:30.199Z,33.60
2022-07-28T14:26:59.687Z,33.10
2022-07-28T14:29:29.274Z,33.40
2022-07-28T14:31:59.510Z,33.40
2022-07-28T14:34:29.266Z,33.40
2022-07-28T14:36:58.710Z,33.20
2022-07-28T14:39:30.280Z,33.00
2022-07-28T14:41:59.714Z,31.50
2022-07-28T14:44:29.297Z,31.70
2022-07-28T14:46:58.912Z,33.10
2022-07-28T14:49:28.677Z,33.20
2022-07-28T14:51:59.574Z,32.80
2022-07-28T14:54:29.948Z,31.00
2022-07-28T14:56:59.524Z,31.80
2022-07-28T14:59:29.033Z,32.70
2022-07-28T15:01:58.761Z,33.00
2022-07-28T15:04:28.476Z,32.90
2022-07-28T15:06:58.059Z,31.40
2022-07-28T15:09:27.818Z,31.70
2022-07-28T15:11:57.317Z,32.00
2022-07-28T15:14:28.264Z,32.00
2022-07-28T15:16:59.095Z,31.80
2022-07-28T15:19:28.711Z,32.00
2022-07-28T15:21:59.130Z,32.90
2022-07-28T15:24:31.851Z,32.70
2022-07-28T15:27:02.294Z,32.40
2022-07-28T15:29:32.849Z,32.40
2022-07-28T15:32:04.992Z,32.60
2022-07-28T15:34:35.772Z,32.70
2022-07-28T15:37:05.224Z,32.70
2022-07-28T15:39:34.763Z,32.80
2022-07-28T15:42:04.272Z,32.60
2022-07-28T15:44:33.979Z,32.50
2022-07-28T15:47:03.801Z,32.60
2022-07-28T15:49:33.844Z,32.60
2022-07-28T15:52:04.522Z,32.40
2022-07-28T15:54:34.232Z,32.40
2022-07-28T15:57:03.743Z,32.50
2022-07-28T15:59:49.178Z,32.30
2022-07-28T16:02:05.249Z,32.10
2022-07-28T16:04:36.264Z,31.90
2022-07-28T16:07:19.713Z,31.90
2022-07-28T16:09:54.397Z,32.00
2022-07-28T16:12:26.109Z,32.10
2022-07-28T16:14:56.148Z,32.20
2022-07-28T16:17:26.820Z,32.20
2022-07-28T16:19:58.452Z,32.10
2022-07-28T16:22:29.613Z,31.90
2022-07-28T16:24:59.154Z,31.60
2022-07-28T16:27:28.672Z,31.80
2022-07-28T16:29:59.175Z,31.80
2022-07-28T16:32:30.782Z,31.90
2022-07-28T16:35:00.325Z,31.80
2022-07-28T16:37:29.943Z,31.80
2022-07-28T16:40:00.185Z,31.80
2022-07-28T16:42:30.062Z,31.70
2022-07-28T16:44:59.788Z,31.70
2022-07-28T16:47:29.400Z,31.60
2022-07-28T16:49:58.924Z,31.40
2022-07-28T16:52:28.593Z,31.40
2022-07-28T16:54:58.102Z,31.40
2022-07-28T16:57:27.544Z,31.20
2022-07-28T16:59:57.047Z,31.10
2022-07-28T17:02:26.564Z,31.10
2022-07-28T17:04:56.132Z,31.00
2022-07-28T17:07:25.729Z,31.00
2022-07-28T17:09:56.107Z,31.00
2022-07-28T17:12:25.556Z,31.00
2022-07-28T17:14:55.008Z,30.90
2022-07-28T17:17:26.226Z,30.70
2022-07-28T17:19:55.728Z,30.70
2022-07-28T17:22:25.364Z,30.50
2022-07-28T17:24:55.370Z,30.50
2022-07-28T17:27:37.938Z,30.50
2022-07-28T17:29:58.386Z,30.50
2022-07-28T17:32:27.913Z,30.20
2022-07-28T17:34:57.420Z,30.20
2022-07-28T17:37:28.717Z,30.20
2022-07-28T17:39:59.191Z,29.90
2022-07-28T17:42:28.795Z,29.80
2022-07-28T17:44:59.862Z,30.00
2022-07-28T17:47:35.981Z,30.00
2022-07-28T17:50:00.451Z,30.10
2022-07-28T17:52:31.231Z,30.10
2022-07-28T17:55:19.116Z,30.00
2022-07-28T17:57:49.866Z,29.90
2022-07-28T18:00:21.819Z,29.60
2022-07-28T18:02:51.460Z,29.50
2022-07-28T18:05:21.553Z,29.40
2022-07-28T18:07:54.789Z,29.30
2022-07-28T18:10:25.200Z,29.30
2022-07-28T18:12:53.641Z,29.20
2022-07-28T18:15:23.066Z,29.20
2022-07-28T18:17:55.124Z,29.20
2022-07-28T18:20:24.381Z,29.20
2022-07-28T18:22:54.470Z,29.10
2022-07-28T18:25:27.053Z,29.10
2022-07-28T18:27:56.856Z,29.00
2022-07-28T18:30:27.517Z,29.00
2022-07-28T18:32:57.003Z,28.90
2022-07-28T18:35:26.586Z,28.80
2022-07-28T18:37:56.585Z,28.80
2022-07-28T18:40:26.803Z,28.80
2022-07-28T18:42:56.382Z,28.80
2022-07-28T18:45:26.444Z,28.70
2022-07-28T18:47:57.592Z,28.60
2022-07-28T18:50:31.363Z,28.60
2022-07-28T18:53:00.830Z,28.60
2022-07-28T18:55:30.434Z,28.70
2022-07-28T18:57:59.889Z,28.60
2022-07-28T19:00:30.945Z,28.40
2022-07-28T19:03:01.617Z,28.30
2022-07-28T19:05:36.953Z,28.10
2022-07-28T19:08:02.682Z,28.00
2022-07-28T19:10:32.475Z,27.90
2022-07-28T19:13:04.425Z,27.80
2022-07-28T19:15:33.971Z,27.80
2022-07-28T19:18:09.790Z,27.80
2022-07-28T19:20:34.610Z,27.80
2022-07-28T19:23:05.486Z,27.80
2022-07-28T19:25:36.943Z,27.70
2022-07-28T19:28:06.857Z,27.50
2022-07-28T19:30:36.744Z,27.40
2022-07-28T19:33:07.367Z,27.40
2022-07-28T19:35:36.820Z,27.40
2022-07-28T19:38:06.469Z,27.40
2022-07-28T19:40:35.969Z,27.30
2022-07-28T19:43:05.460Z,27.30
2022-07-28T19:45:34.980Z,27.20
2022-07-28T19:48:04.687Z,27.20
2022-07-28T19:50:35.441Z,27.10
2022-07-28T19:53:05.256Z,27.20
2022-07-28T19:55:37.031Z,27.20
2022-07-28T19:58:07.047Z,26.90
2022-07-28T20:00:36.559Z,26.80
2022-07-28T20:03:59.791Z,26.70
2022-07-28T20:05:39.810Z,26.60
2022-07-28T20:08:09.874Z,26.40
2022-07-28T20:10:39.468Z,26.30
2022-07-28T20:13:10.160Z,26.40
2022-07-28T20:15:41.346Z,26.30
2022-07-28T20:18:10.960Z,26.40
2022-07-28T20:20:41.176Z,26.30
2022-07-28T20:23:11.057Z,26.20
2022-07-28T20:25:40.706Z,26.30
2022-07-28T20:28:11.498Z,26.30
2022-07-28T20:30:41.756Z,26.30
2022-07-28T20:33:11.212Z,26.30
2022-07-28T20:35:40.769Z,26.10
2022-07-28T20:38:10.202Z,25.90
2022-07-28T20:40:39.787Z,26.00
2022-07-28T20:43:09.426Z,26.00
2022-07-28T20:45:39.026Z,25.80
2022-07-28T20:48:08.575Z,25.90
2022-07-28T20:50:39.828Z,26.00
2022-07-28T20:53:10.625Z,25.80
2022-07-28T20:55:40.722Z,25.80
2022-07-28T20:58:10.213Z,25.80
2022-07-28T21:00:41.496Z,25.70
2022-07-28T21:03:11.012Z,25.60
2022-07-28T21:05:41.533Z,25.50
2022-07-28T21:08:16.119Z,25.50
2022-07-28T21:10:44.000Z,25.60
2022-07-28T21:13:13.828Z,25.60
2022-07-28T21:15:43.327Z,25.60
2022-07-28T21:18:13.147Z,25.60
2022-07-28T21:20:42.593Z,25.60
2022-07-28T21:23:12.509Z,25.60
2022-07-28T21:25:45.093Z,25.60
2022-07-28T21:28:32.395Z,25.60
2022-07-28T21:31:02.002Z,25.60
2022-07-28T21:33:31.856Z,25.40
2022-07-28T21:36:01.368Z,25.30
2022-07-28T21:38:32.726Z,25.20
2022-07-28T21:41:02.428Z,25.10
2022-07-28T21:43:32.205Z,25.10
2022-07-28T21:46:03.292Z,25.10
2022-07-28T21:48:33.111Z,25.10
2022-07-28T21:51:02.712Z,25.00
2022-07-28T21:53:32.264Z,24.90
2022-07-28T21:56:01.701Z,24.90
2022-07-28T21:58:31.280Z,24.80
2022-07-28T22:01:02.765Z,24.80
2022-07-28T22:03:32.181Z,24.90
2022-07-28T22:06:01.754Z,24.80
2022-07-28T22:08:31.821Z,24.70
2022-07-28T22:11:03.039Z,24.70
2022-07-28T22:13:32.591Z,24.60
2022-07-28T22:16:02.145Z,24.50
2022-07-28T22:18:32.049Z,24.50
2022-07-28T22:21:01.487Z,24.50
2022-07-28T22:23:31.137Z,24.50
2022-07-28T22:26:00.613Z,24.50
2022-07-28T22:28:30.819Z,24.50
2022-07-28T22:31:09.110Z,24.50
2022-07-28T22:33:32.236Z,24.40
2022-07-28T22:36:01.770Z,24.50
2022-07-28T22:38:31.348Z,24.40
2022-07-28T22:41:00.786Z,24.30
2022-07-28T22:43:32.638Z,24.30
2022-07-28T22:46:02.887Z,24.30
2022-07-28T22:48:32.457Z,24.40
2022-07-28T22:51:01.917Z,24.40
2022-07-28T22:53:31.352Z,24.50
2022-07-28T22:58:48.238Z,24.30
2022-07-28T23:01:17.961Z,24.40
2022-07-28T23:03:47.609Z,24.50
2022-07-28T23:06:17.588Z,24.40
2022-07-28T23:08:47.097Z,24.30
2022-07-28T23:11:16.654Z,24.30
2022-07-28T23:13:46.312Z,24.20
2022-07-28T23:16:17.503Z,24.30
2022-07-28T23:18:47.116Z,24.20
2022-07-28T23:21:16.778Z,24.40
2022-07-28T23:23:46.322Z,24.30
2022-07-28T23:26:16.159Z,24.40
2022-07-28T23:28:45.752Z,24.40
2022-07-28T23:31:15.504Z,24.30
2022-07-28T23:33:55.236Z,24.50
2022-07-28T23:36:26.172Z,24.50
2022-07-28T23:38:47.506Z,24.50
2022-07-28T23:41:17.767Z,24.50
2022-07-28T23:43:47.426Z,24.50
2022-07-28T23:46:17.063Z,24.50
2022-07-28T23:48:46.998Z,24.50
2022-07-28T23:51:16.691Z,24.40
2022-07-28T23:53:46.308Z,24.30
2022-07-28T23:56:16.158Z,24.30
2022-07-28T23:58:45.653Z,24.40
